createdAt,value
2018-08-11T00:01:54.775Z,1.57
2018-08-11T00:04:23.131Z,1.60
2018-08-11T00:06:51.546Z,1.50
2018-08-11T00:09:19.912Z,1.40
2018-08-11T00:11:48.295Z,1.40
2018-08-11T00:14:16.701Z,1.33
2018-08-11T00:16:45.103Z,1.40
2018-08-11T00:19:13.484Z,1.50
2018-08-11T00:21:41.900Z,1.40
2018-08-11T00:24:10.282Z,1.60
2018-08-11T00:26:38.677Z,1.50
2018-08-11T00:29:07.052Z,1.50
2018-08-11T00:31:35.521Z,1.40
2018-08-11T00:34:04.076Z,1.50
2018-08-11T00:36:32.530Z,1.30
2018-08-11T00:39:00.841Z,1.63
2018-08-11T00:41:29.235Z,1.30
2018-08-11T00:43:57.596Z,1.50
2018-08-11T00:46:26.025Z,1.50
2018-08-11T00:48:54.648Z,1.40
2018-08-11T00:51:23.030Z,1.70
2018-08-11T00:53:51.371Z,1.20
2018-08-11T00:56:19.739Z,1.40
2018-08-11T00:58:48.099Z,1.50
2018-08-11T01:01:16.500Z,1.40
2018-08-11T01:03:44.852Z,1.30
2018-08-11T01:06:13.263Z,1.47
2018-08-11T01:08:41.632Z,1.30
2018-08-11T01:11:10.005Z,1.33
2018-08-11T01:13:38.403Z,1.23
2018-08-11T01:16:06.875Z,1.40
2018-08-11T01:18:35.258Z,1.33
2018-08-11T01:21:03.663Z,1.10
2018-08-11T01:23:32.075Z,1.30
2018-08-11T01:26:00.469Z,1.30
2018-08-11T01:28:28.852Z,1.20
2018-08-11T01:30:57.224Z,1.23
2018-08-11T01:33:25.948Z,1.57
2018-08-11T01:35:54.343Z,1.63
2018-08-11T01:38:22.715Z,1.50
2018-08-11T01:40:51.098Z,1.27
2018-08-11T01:43:19.468Z,1.30
2018-08-11T01:45:47.959Z,1.30
2018-08-11T01:48:16.385Z,1.13
2018-08-11T01:50:44.723Z,1.20
2018-08-11T01:53:13.109Z,1.47
2018-08-11T01:55:41.470Z,1.20
2018-08-11T01:58:09.867Z,1.17
2018-08-11T02:00:38.240Z,1.40
2018-08-11T02:03:06.696Z,1.50
2018-08-11T02:05:35.060Z,1.13
2018-08-11T02:08:03.501Z,1.20
2018-08-11T02:10:31.878Z,1.30
2018-08-11T02:13:00.302Z,1.20
2018-08-11T02:15:28.702Z,1.10
2018-08-11T02:17:57.112Z,1.23
2018-08-11T02:20:25.491Z,1.23
2018-08-11T02:22:53.844Z,1.47
2018-08-11T02:25:22.255Z,1.20
2018-08-11T02:27:50.649Z,1.27
2018-08-11T02:30:19.077Z,2.20
2018-08-11T02:32:47.529Z,2.37
2018-08-11T02:35:15.954Z,2.30
2018-08-11T02:37:44.785Z,2.27
2018-08-11T02:40:14.504Z,1.80
2018-08-11T02:42:42.949Z,1.80
2018-08-11T02:45:13.212Z,1.37
2018-08-11T02:47:41.620Z,1.50
2018-08-11T02:50:11.017Z,1.43
2018-08-11T02:52:40.129Z,1.40
2018-08-11T02:55:08.625Z,1.30
2018-08-11T02:57:37.076Z,1.20
2018-08-11T03:00:07.590Z,1.20
2018-08-11T03:02:36.223Z,1.20
2018-08-11T03:05:04.702Z,1.30
2018-08-11T03:07:33.105Z,1.10
2018-08-11T03:10:01.489Z,1.20
2018-08-11T03:12:29.877Z,1.20
2018-08-11T03:14:58.257Z,1.17
2018-08-11T03:17:26.625Z,1.10
2018-08-11T03:19:55.023Z,1.17
2018-08-11T03:22:23.381Z,1.70
2018-08-11T03:24:51.842Z,1.40
2018-08-11T03:27:20.236Z,1.50
2018-08-11T03:29:48.638Z,1.50
2018-08-11T03:32:17.015Z,1.63
2018-08-11T03:34:45.430Z,1.70
2018-08-11T03:37:13.792Z,1.73
2018-08-11T03:39:42.197Z,1.60
2018-08-11T03:42:10.575Z,1.50
2018-08-11T03:44:38.977Z,1.70
2018-08-11T03:47:07.369Z,1.90
2018-08-11T03:49:35.799Z,1.90
2018-08-11T03:52:04.205Z,1.87
2018-08-11T03:54:32.600Z,2.20
2018-08-11T03:57:00.952Z,2.03
2018-08-11T03:59:29.348Z,2.00
2018-08-11T04:01:57.744Z,2.50
2018-08-11T04:04:26.127Z,2.30
2018-08-11T04:06:54.511Z,2.10
2018-08-11T04:09:22.884Z,2.30
2018-08-11T04:11:51.260Z,2.50
2018-08-11T04:14:19.650Z,2.40
2018-08-11T04:16:48.151Z,2.30
2018-08-11T04:19:16.625Z,2.67
2018-08-11T04:21:45.012Z,2.60
2018-08-11T04:24:13.428Z,2.67
2018-08-11T04:26:41.807Z,3.20
2018-08-11T04:29:10.423Z,2.87
2018-08-11T04:31:39.115Z,3.00
2018-08-11T04:34:07.738Z,3.00
2018-08-11T04:36:36.303Z,2.43
2018-08-11T04:39:07.432Z,2.40
2018-08-11T04:41:35.895Z,2.13
2018-08-11T04:44:04.307Z,2.10
2018-08-11T04:46:32.660Z,2.23
2018-08-11T04:49:01.080Z,2.30
2018-08-11T04:51:29.472Z,2.10
2018-08-11T04:53:57.848Z,2.10
2018-08-11T04:56:26.258Z,2.10
2018-08-11T04:58:54.647Z,2.00
2018-08-11T05:01:23.052Z,2.30
2018-08-11T05:03:51.425Z,2.07
2018-08-11T05:06:19.840Z,2.27
2018-08-11T05:08:48.280Z,2.33
2018-08-11T05:11:16.720Z,1.90
2018-08-11T05:13:45.088Z,1.70
2018-08-11T05:16:13.501Z,1.77
2018-08-11T05:18:41.892Z,1.73
2018-08-11T05:21:10.330Z,1.50
2018-08-11T05:23:38.716Z,1.53
2018-08-11T05:26:07.173Z,1.63
2018-08-11T05:28:35.580Z,1.70
2018-08-11T05:31:03.996Z,1.50
2018-08-11T05:33:32.468Z,1.60
2018-08-11T05:36:00.860Z,1.70
2018-08-11T05:38:29.224Z,1.80
2018-08-11T05:40:57.616Z,1.90
2018-08-11T05:43:26.009Z,1.93
2018-08-11T05:45:54.392Z,1.70
2018-08-11T05:48:22.793Z,1.87
2018-08-11T05:50:51.231Z,1.60
2018-08-11T05:53:19.675Z,1.77
2018-08-11T05:55:48.165Z,1.77
2018-08-11T05:58:16.647Z,1.83
2018-08-11T06:00:45.117Z,1.77
2018-08-11T06:03:13.543Z,1.80
2018-08-11T06:05:41.986Z,1.70
2018-08-11T06:08:10.489Z,1.60
2018-08-11T06:10:39.000Z,1.50
2018-08-11T06:13:07.511Z,1.70
2018-08-11T06:15:36.020Z,1.40
2018-08-11T06:18:04.529Z,1.47
2018-08-11T06:20:32.973Z,1.50
2018-08-11T06:23:01.444Z,1.60
2018-08-11T06:25:30.655Z,1.50
2018-08-11T06:27:59.280Z,1.80
2018-08-11T06:30:27.708Z,1.60
2018-08-11T06:32:56.153Z,1.50
2018-08-11T06:35:24.641Z,1.47
2018-08-11T06:37:53.125Z,1.77
2018-08-11T06:40:21.625Z,2.10
2018-08-11T06:42:50.097Z,2.13
2018-08-11T06:45:19.435Z,1.90
2018-08-11T06:47:47.913Z,2.00
2018-08-11T06:50:16.284Z,2.10
2018-08-11T06:52:44.810Z,2.20
2018-08-11T06:55:13.273Z,2.03
2018-08-11T06:57:41.665Z,2.30
2018-08-11T07:00:10.057Z,2.60
2018-08-11T07:02:38.451Z,2.90
2018-08-11T07:05:07.109Z,2.90
2018-08-11T07:07:35.599Z,3.20
2018-08-11T07:10:04.660Z,3.10
2018-08-11T07:12:33.134Z,2.87
2018-08-11T07:15:01.593Z,3.10
2018-08-11T07:17:30.048Z,3.30
2018-08-11T07:19:58.437Z,3.63
2018-08-11T07:22:26.983Z,3.20
2018-08-11T07:24:55.445Z,3.97
2018-08-11T07:27:23.968Z,3.53
2018-08-11T07:29:52.496Z,3.00
2018-08-11T07:32:20.942Z,3.40
2018-08-11T07:34:49.294Z,3.57
2018-08-11T07:37:17.774Z,3.53
2018-08-11T07:39:46.141Z,3.97
2018-08-11T07:42:14.503Z,4.00
2018-08-11T07:44:42.980Z,4.00
2018-08-11T07:47:11.336Z,3.83
2018-08-11T07:49:40.011Z,4.23
2018-08-11T07:52:08.428Z,3.97
2018-08-11T07:54:36.803Z,4.13
2018-08-11T07:57:05.225Z,4.20
2018-08-11T07:59:33.604Z,4.37
2018-08-11T08:02:02.013Z,3.93
2018-08-11T08:04:30.427Z,4.53
2018-08-11T08:06:58.770Z,4.63
2018-08-11T08:09:27.143Z,4.73
2018-08-11T08:11:55.499Z,4.37
2018-08-11T08:14:23.872Z,4.03
2018-08-11T08:16:52.223Z,3.93
2018-08-11T08:19:20.649Z,4.30
2018-08-11T08:21:48.983Z,3.80
2018-08-11T08:24:17.381Z,3.73
2018-08-11T08:26:45.780Z,3.80
2018-08-11T08:29:14.155Z,4.23
2018-08-11T08:31:42.491Z,3.93
2018-08-11T08:34:10.864Z,3.97
2018-08-11T08:36:39.216Z,3.93
2018-08-11T08:39:09.299Z,3.73
2018-08-11T08:41:37.640Z,3.70
2018-08-11T08:44:06.028Z,3.57
2018-08-11T08:46:34.374Z,3.93
2018-08-11T08:49:02.792Z,4.13
2018-08-11T08:51:31.171Z,4.00
2018-08-11T08:53:59.504Z,3.73
2018-08-11T08:56:27.876Z,3.50
2018-08-11T08:58:56.241Z,3.33
2018-08-11T09:01:24.706Z,3.70
2018-08-11T09:03:53.047Z,3.60
2018-08-11T09:06:21.665Z,3.40
2018-08-11T09:08:50.042Z,3.30
2018-08-11T09:11:18.432Z,3.50
2018-08-11T09:13:47.156Z,3.37
2018-08-11T09:16:15.633Z,3.50
2018-08-11T09:18:44.036Z,3.70
2018-08-11T09:21:12.462Z,3.90
2018-08-11T09:23:40.893Z,4.63
2018-08-11T09:26:09.380Z,3.30
2018-08-11T09:28:37.758Z,3.17
2018-08-11T09:31:06.128Z,3.17
2018-08-11T09:33:34.474Z,3.37
2018-08-11T09:36:02.863Z,3.47
2018-08-11T09:38:31.265Z,3.23
2018-08-11T09:40:59.615Z,3.37
2018-08-11T09:43:27.970Z,3.43
2018-08-11T09:45:56.417Z,3.07
2018-08-11T09:48:24.727Z,3.53
2018-08-11T09:50:53.100Z,3.40
2018-08-11T09:53:21.427Z,3.00
2018-08-11T09:55:51.395Z,3.40
2018-08-11T09:58:19.987Z,3.60
2018-08-11T10:00:49.964Z,3.40
2018-08-11T10:03:18.328Z,3.30
2018-08-11T10:05:46.667Z,3.33
2018-08-11T10:08:15.073Z,3.00
2018-08-11T10:10:43.486Z,2.63
2018-08-11T10:13:11.853Z,2.50
2018-08-11T10:15:40.234Z,2.67
2018-08-11T10:18:08.612Z,3.10
2018-08-11T10:20:36.988Z,2.73
2018-08-11T10:23:05.381Z,2.70
2018-08-11T10:25:33.764Z,2.47
2018-08-11T10:28:02.147Z,2.43
2018-08-11T10:30:30.499Z,2.40
2018-08-11T10:32:58.896Z,2.60
2018-08-11T10:35:28.541Z,2.33
2018-08-11T10:37:56.960Z,2.17
2018-08-11T10:40:25.295Z,2.07
2018-08-11T10:42:53.727Z,2.17
2018-08-11T10:45:22.071Z,1.93
2018-08-11T10:47:50.444Z,1.77
2018-08-11T10:50:18.936Z,1.70
2018-08-11T10:52:47.327Z,1.90
2018-08-11T10:55:15.707Z,1.80
2018-08-11T10:57:44.067Z,1.80
2018-08-11T11:00:12.439Z,1.63
2018-08-11T11:02:40.795Z,2.03
2018-08-11T11:05:09.829Z,1.70
2018-08-11T11:07:38.198Z,1.53
2018-08-11T11:10:06.940Z,1.60
2018-08-11T11:12:35.335Z,1.70
2018-08-11T11:15:03.812Z,1.70
2018-08-11T11:17:32.187Z,1.50
2018-08-11T11:20:00.528Z,1.40
2018-08-11T11:22:28.903Z,1.50
2018-08-11T11:24:58.139Z,1.50
2018-08-11T11:27:26.545Z,1.60
2018-08-11T11:29:54.895Z,1.30
2018-08-11T11:32:23.275Z,1.30
2018-08-11T11:34:51.620Z,1.50
2018-08-11T11:37:20.069Z,1.30
2018-08-11T11:39:48.364Z,1.10
2018-08-11T11:42:16.716Z,1.40
2018-08-11T11:44:45.084Z,1.30
2018-08-11T11:47:13.446Z,1.57
2018-08-11T11:49:41.812Z,1.50
2018-08-11T11:52:10.192Z,1.40
2018-08-11T11:54:38.563Z,1.10
2018-08-11T11:57:07.296Z,1.27
2018-08-11T11:59:35.695Z,1.20
2018-08-11T12:02:04.097Z,1.20
2018-08-11T12:04:32.467Z,1.10
2018-08-11T12:07:00.804Z,1.20
2018-08-11T12:09:29.171Z,1.00
2018-08-11T12:11:57.508Z,1.20
2018-08-11T12:14:25.863Z,1.30
2018-08-11T12:16:54.212Z,0.97
2018-08-11T12:19:22.600Z,1.20
2018-08-11T12:21:50.960Z,1.20
2018-08-11T12:24:19.375Z,1.00
2018-08-11T12:26:47.727Z,1.20
2018-08-11T12:29:16.147Z,2.07
2018-08-11T12:31:44.520Z,1.00
2018-08-11T12:34:12.879Z,1.40
2018-08-11T12:36:41.217Z,1.20
2018-08-11T12:39:10.748Z,1.13
2018-08-11T12:41:39.716Z,1.00
2018-08-11T12:44:08.284Z,1.20
2018-08-11T12:46:36.628Z,1.13
2018-08-11T12:49:04.987Z,1.20
2018-08-11T12:51:33.329Z,1.10
2018-08-11T12:54:01.688Z,1.47
2018-08-11T12:56:30.111Z,1.20
2018-08-11T12:58:58.517Z,1.13
2018-08-11T13:01:26.862Z,1.20
2018-08-11T13:03:55.247Z,1.33
2018-08-11T13:06:23.628Z,1.40
2018-08-11T13:08:52.074Z,1.30
2018-08-11T13:11:20.416Z,1.37
2018-08-11T13:13:48.819Z,1.20
2018-08-11T13:16:17.182Z,1.70
2018-08-11T13:18:45.726Z,1.33
2018-08-11T13:21:14.073Z,1.20
2018-08-11T13:23:42.470Z,1.17
2018-08-11T13:26:10.811Z,1.13
2018-08-11T13:28:39.188Z,1.00
2018-08-11T13:31:07.596Z,0.90
2018-08-11T13:33:35.943Z,1.00
2018-08-11T13:36:04.347Z,1.00
2018-08-11T13:38:32.709Z,0.93
2018-08-11T13:41:01.100Z,1.10
2018-08-11T13:43:29.455Z,0.80
2018-08-11T13:45:57.833Z,1.10
2018-08-11T13:48:26.172Z,1.00
2018-08-11T13:50:54.563Z,1.00
2018-08-11T13:53:22.904Z,1.23
2018-08-11T13:55:51.276Z,1.17
2018-08-11T13:58:20.001Z,1.30
2018-08-11T14:00:48.391Z,1.30
2018-08-11T14:03:16.731Z,1.20
2018-08-11T14:05:45.124Z,1.30
2018-08-11T14:08:13.472Z,1.37
2018-08-11T14:10:41.832Z,1.13
2018-08-11T14:13:10.171Z,1.10
2018-08-11T14:15:38.552Z,1.20
2018-08-11T14:18:06.940Z,1.10
2018-08-11T14:20:35.308Z,1.23
2018-08-11T14:23:03.676Z,1.10
2018-08-11T14:25:32.068Z,1.20
2018-08-11T14:28:00.428Z,1.10
2018-08-11T14:30:28.799Z,1.30
2018-08-11T14:32:57.158Z,1.47
2018-08-11T14:35:25.524Z,1.27
2018-08-11T14:37:53.888Z,1.27
2018-08-11T14:40:22.275Z,1.43
2018-08-11T14:42:51.551Z,1.40
2018-08-11T14:45:20.885Z,1.20
2018-08-11T14:47:49.366Z,1.30
2018-08-11T14:50:17.756Z,1.13
2018-08-11T14:52:46.088Z,1.90
2018-08-11T14:55:14.479Z,1.20
2018-08-11T14:57:42.828Z,1.20
2018-08-11T15:00:12.892Z,1.03
2018-08-11T15:02:41.671Z,0.90
2018-08-11T15:05:10.391Z,1.10
2018-08-11T15:07:39.031Z,0.90
2018-08-11T15:10:08.364Z,1.40
2018-08-11T15:12:36.670Z,1.00
2018-08-11T15:15:05.777Z,1.10
2018-08-11T15:17:34.123Z,1.13
2018-08-11T15:20:02.506Z,1.30
2018-08-11T15:22:30.892Z,1.47
2018-08-11T15:24:59.270Z,1.40
2018-08-11T15:27:27.644Z,1.27
2018-08-11T15:29:55.989Z,1.30
2018-08-11T15:32:24.347Z,1.10
2018-08-11T15:34:52.692Z,1.20
2018-08-11T15:37:21.116Z,1.27
2018-08-11T15:39:49.495Z,1.30
2018-08-11T15:42:17.886Z,1.40
2018-08-11T15:44:46.240Z,1.20
2018-08-11T15:47:14.607Z,1.50
2018-08-11T15:49:42.967Z,1.43
2018-08-11T15:52:11.339Z,1.50
2018-08-11T15:54:39.734Z,1.40
2018-08-11T15:57:08.096Z,1.50
2018-08-11T15:59:36.524Z,1.83
2018-08-11T16:02:04.903Z,1.40
2018-08-11T16:04:33.268Z,1.47
2018-08-11T16:07:01.659Z,1.27
2018-08-11T16:09:30.019Z,1.30
2018-08-11T16:11:58.612Z,1.40
2018-08-11T16:14:26.948Z,1.30
2018-08-11T16:16:55.318Z,1.70
2018-08-11T16:19:23.761Z,1.97
2018-08-11T16:21:52.124Z,1.50
2018-08-11T16:24:20.504Z,1.27
2018-08-11T16:26:49.263Z,1.80
2018-08-11T16:29:17.646Z,1.40
2018-08-11T16:31:45.996Z,1.47
2018-08-11T16:34:14.348Z,1.30
2018-08-11T16:36:42.711Z,1.13
2018-08-11T16:39:11.070Z,1.30
2018-08-11T16:41:40.052Z,1.13
2018-08-11T16:44:08.392Z,1.30
2018-08-11T16:46:36.807Z,1.30
2018-08-11T16:49:05.216Z,1.23
2018-08-11T16:51:33.644Z,1.30
2018-08-11T16:54:02.131Z,1.40
2018-08-11T16:56:30.564Z,1.40
2018-08-11T16:58:58.920Z,1.40
2018-08-11T17:01:27.285Z,1.30
2018-08-11T17:03:55.653Z,1.37
2018-08-11T17:06:24.012Z,1.33
2018-08-11T17:08:52.363Z,1.30
2018-08-11T17:11:20.727Z,1.20
2018-08-11T17:13:49.080Z,1.10
2018-08-11T17:16:17.430Z,1.10
2018-08-11T17:18:45.839Z,1.37
2018-08-11T17:21:14.259Z,1.10
2018-08-11T17:23:42.639Z,1.20
2018-08-11T17:26:10.991Z,1.20
2018-08-11T17:28:39.351Z,1.30
2018-08-11T17:31:07.696Z,1.40
2018-08-11T17:33:36.088Z,1.20
2018-08-11T17:36:04.478Z,1.57
2018-08-11T17:38:32.864Z,1.17
2018-08-11T17:41:01.209Z,1.10
2018-08-11T17:43:29.591Z,1.37
2018-08-11T17:45:57.947Z,1.50
2018-08-11T17:48:26.320Z,1.10
2018-08-11T17:50:54.771Z,1.20
2018-08-11T17:53:23.139Z,1.30
2018-08-11T17:55:51.524Z,1.27
2018-08-11T17:58:19.895Z,1.10
2018-08-11T18:00:48.251Z,1.17
2018-08-11T18:03:16.608Z,1.13
2018-08-11T18:05:45.015Z,1.07
2018-08-11T18:08:13.390Z,1.10
2018-08-11T18:10:41.736Z,1.10
2018-08-11T18:13:10.158Z,1.30
2018-08-11T18:15:38.475Z,1.00
2018-08-11T18:18:06.844Z,1.20
2018-08-11T18:20:35.178Z,1.03
2018-08-11T18:23:03.542Z,1.10
2018-08-11T18:25:31.954Z,1.10
2018-08-11T18:28:00.304Z,1.10
2018-08-11T18:30:28.756Z,1.00
2018-08-11T18:32:57.127Z,0.97
2018-08-11T18:35:25.564Z,1.23
2018-08-11T18:37:53.924Z,0.97
2018-08-11T18:40:22.294Z,1.00
2018-08-11T18:42:50.729Z,1.00
2018-08-11T18:45:19.092Z,1.00
2018-08-11T18:47:47.447Z,1.10
2018-08-11T18:50:15.768Z,1.00
2018-08-11T18:52:44.143Z,1.07
2018-08-11T18:55:12.485Z,1.27
2018-08-11T18:57:40.827Z,1.23
2018-08-11T19:00:12.919Z,1.00
2018-08-11T19:02:41.268Z,0.93
2018-08-11T19:05:09.722Z,1.10
2018-08-11T19:07:38.144Z,1.10
2018-08-11T19:10:07.879Z,1.10
2018-08-11T19:12:36.740Z,1.10
2018-08-11T19:15:07.144Z,1.10
2018-08-11T19:17:35.506Z,1.00
2018-08-11T19:20:04.808Z,0.90
2018-08-11T19:22:33.181Z,1.13
2018-08-11T19:25:01.576Z,1.00
2018-08-11T19:27:30.295Z,1.10
2018-08-11T19:29:58.660Z,1.37
2018-08-11T19:32:27.020Z,1.50
2018-08-11T19:34:55.397Z,1.10
2018-08-11T19:37:23.731Z,1.00
2018-08-11T19:39:52.103Z,0.90
2018-08-11T19:42:20.445Z,1.10
2018-08-11T19:44:48.808Z,1.10
2018-08-11T19:47:17.183Z,1.33
2018-08-11T19:49:45.535Z,1.10
2018-08-11T19:52:13.924Z,1.10
2018-08-11T19:54:42.304Z,1.13
2018-08-11T19:57:10.696Z,1.20
2018-08-11T19:59:39.118Z,1.10
2018-08-11T20:02:07.741Z,1.00
2018-08-11T20:04:36.141Z,1.00
2018-08-11T20:07:04.755Z,1.30
2018-08-11T20:09:33.180Z,1.10
2018-08-11T20:12:01.601Z,0.90
2018-08-11T20:14:30.030Z,1.10
2018-08-11T20:16:58.407Z,1.13
2018-08-11T20:19:26.909Z,1.03
2018-08-11T20:21:55.207Z,1.30
2018-08-11T20:24:23.649Z,1.30
2018-08-11T20:26:52.024Z,1.17
2018-08-11T20:29:20.432Z,1.30
2018-08-11T20:31:48.809Z,1.10
2018-08-11T20:34:17.233Z,1.10
2018-08-11T20:36:45.604Z,1.20
2018-08-11T20:39:14.925Z,1.10
2018-08-11T20:41:43.291Z,1.40
2018-08-11T20:44:11.696Z,1.40
2018-08-11T20:46:40.089Z,1.33
2018-08-11T20:49:08.443Z,1.30
2018-08-11T20:51:36.839Z,1.30
2018-08-11T20:54:05.181Z,1.27
2018-08-11T20:56:33.680Z,1.30
2018-08-11T20:59:02.064Z,1.33
2018-08-11T21:01:30.460Z,1.30
2018-08-11T21:03:58.816Z,1.20
2018-08-11T21:06:27.208Z,1.40
2018-08-11T21:08:55.611Z,1.50
2018-08-11T21:11:24.064Z,1.20
2018-08-11T21:13:52.477Z,1.47
2018-08-11T21:16:20.841Z,1.10
2018-08-11T21:18:49.228Z,1.27
2018-08-11T21:21:17.644Z,1.37
2018-08-11T21:23:46.094Z,1.47
2018-08-11T21:26:14.431Z,1.23
2018-08-11T21:28:42.785Z,1.40
2018-08-11T21:31:11.182Z,1.30
2018-08-11T21:33:39.560Z,1.40
2018-08-11T21:36:08.053Z,1.47
2018-08-11T21:38:36.428Z,1.43
2018-08-11T21:41:04.818Z,1.40
2018-08-11T21:43:33.193Z,1.50
2018-08-11T21:46:01.847Z,1.27
2018-08-11T21:48:30.211Z,1.63
2018-08-11T21:50:58.587Z,1.30
2018-08-11T21:53:26.961Z,1.70
2018-08-11T21:55:55.370Z,1.70
2018-08-11T21:58:23.725Z,1.60
2018-08-11T22:00:57.446Z,1.60
2018-08-11T22:03:25.864Z,1.37
2018-08-11T22:05:55.918Z,1.50
2018-08-11T22:08:24.364Z,1.40
2018-08-11T22:10:52.837Z,1.27
2018-08-11T22:13:21.250Z,1.33
2018-08-11T22:15:49.730Z,1.70
2018-08-11T22:18:18.165Z,1.87
2018-08-11T22:20:46.613Z,2.17
2018-08-11T22:23:15.048Z,1.90
2018-08-11T22:25:43.502Z,2.17
2018-08-11T22:28:11.924Z,1.80
2018-08-11T22:30:40.331Z,2.13
2018-08-11T22:33:08.766Z,1.73
2018-08-11T22:35:37.185Z,1.53
2018-08-11T22:38:05.652Z,1.43
2018-08-11T22:40:34.109Z,1.50
2018-08-11T22:43:02.563Z,1.80
2018-08-11T22:45:30.981Z,1.60
2018-08-11T22:47:59.446Z,1.80
2018-08-11T22:50:27.899Z,1.70
2018-08-11T22:52:56.349Z,1.80
2018-08-11T22:55:24.734Z,1.80
2018-08-11T22:57:53.178Z,1.67
2018-08-11T23:00:22.457Z,1.80
2018-08-11T23:02:50.916Z,1.70
2018-08-11T23:05:20.517Z,1.83
2018-08-11T23:07:48.960Z,1.80
2018-08-11T23:10:17.713Z,1.73
2018-08-11T23:12:46.733Z,1.70
2018-08-11T23:15:16.688Z,1.80
2018-08-11T23:17:46.258Z,1.90
2018-08-11T23:20:15.112Z,1.70
2018-08-11T23:22:43.588Z,1.80
2018-08-11T23:25:12.490Z,1.73
2018-08-11T23:27:40.973Z,1.70
2018-08-11T23:30:12.800Z,1.80
2018-08-11T23:32:42.169Z,1.80
2018-08-11T23:35:11.028Z,1.83
2018-08-11T23:37:39.928Z,2.10
2018-08-11T23:40:09.117Z,2.10
2018-08-11T23:42:38.257Z,2.00
2018-08-11T23:45:10.363Z,1.70
2018-08-11T23:47:39.189Z,1.80
2018-08-11T23:50:08.254Z,1.77
2018-08-11T23:52:36.657Z,2.00
2018-08-11T23:55:06.212Z,1.73
2018-08-11T23:57:34.936Z,1.70
